Terminal Aerodrome Forecast
Issued by NWS

Home | Current Version | Previous Version | Text Only | Print | Product List | Glossary On
Versions: 1 2 3 4 5 6 7 8 9 10 11 12 13 14 15 16 17 18 19 20 21 22
000
FTUS44 KLIX 161700
TAFMSY
TAF
KMSY 161733Z 1618/1718 14006KT P6SM FEW040
     FM171000 10006KT P6SM SCT080
     FM171100 09006KT P6SM SCT250
     FM171200 09007KT P6SM BKN035
     FM171500 09010KT P6SM BKN025=

USA.gov is the U.S. government's official web portal to all federal, state and local government web resources and services.